sensor_id;sensor_type;location;lat;lon;timestamp;temperature;humidity
36374;DHT22;22399;51.346;12.372;2023-06-24T00:02:07;16.10;99.90
36374;DHT22;22399;51.346;12.372;2023-06-24T00:04:35;16.10;99.90
36374;DHT22;22399;51.346;12.372;2023-06-24T00:07:04;16.10;99.90
36374;DHT22;22399;51.346;12.372;2023-06-24T00:09:32;16.00;99.90
36374;DHT22;22399;51.346;12.372;2023-06-24T00:12:02;16.00;99.90
36374;DHT22;22399;51.346;12.372;2023-06-24T00:14:39;16.00;99.90
36374;DHT22;22399;51.346;12.372;2023-06-24T00:17:09;15.90;99.90
36374;DHT22;22399;51.346;12.372;2023-06-24T00:19:38;16.00;99.90
36374;DHT22;22399;51.346;12.372;2023-06-24T00:22:06;16.00;99.90
36374;DHT22;22399;51.346;12.372;2023-06-24T00:24:34;16.00;99.90
36374;DHT22;22399;51.346;12.372;2023-06-24T00:27:03;16.00;99.90
36374;DHT22;22399;51.346;12.372;2023-06-24T00:29:32;16.00;99.90
36374;DHT22;22399;51.346;12.372;2023-06-24T00:32:01;15.90;99.90
36374;DHT22;22399;51.346;12.372;2023-06-24T00:34:31;15.90;99.90
36374;DHT22;22399;51.346;12.372;2023-06-24T00:36:59;15.90;99.90
36374;DHT22;22399;51.346;12.372;2023-06-24T00:39:29;15.80;99.90
36374;DHT22;22399;51.346;12.372;2023-06-24T00:41:59;15.80;99.90
36374;DHT22;22399;51.346;12.372;2023-06-24T00:44:27;15.80;99.90
36374;DHT22;22399;51.346;12.372;2023-06-24T00:46:57;15.80;99.90
36374;DHT22;22399;51.346;12.372;2023-06-24T00:49:25;15.80;99.90
36374;DHT22;22399;51.346;12.372;2023-06-24T00:51:55;15.80;99.90
36374;DHT22;22399;51.346;12.372;2023-06-24T00:54:23;15.80;99.90
36374;DHT22;22399;51.346;12.372;2023-06-24T00:56:59;15.80;99.90
36374;DHT22;22399;51.346;12.372;2023-06-24T00:59:29;15.80;99.90
36374;DHT22;22399;51.346;12.372;2023-06-24T01:01:58;15.70;99.90
36374;DHT22;22399;51.346;12.372;2023-06-24T01:04:29;15.70;99.90
36374;DHT22;22399;51.346;12.372;2023-06-24T01:06:59;15.70;99.90
36374;DHT22;22399;51.346;12.372;2023-06-24T01:09:27;15.60;99.90
36374;DHT22;22399;51.346;12.372;2023-06-24T01:11:56;15.60;99.90
36374;DHT22;22399;51.346;12.372;2023-06-24T01:14:24;15.60;99.90
36374;DHT22;22399;51.346;12.372;2023-06-24T01:16:58;15.60;99.90
36374;DHT22;22399;51.346;12.372;2023-06-24T01:19:38;15.50;99.90
36374;DHT22;22399;51.346;12.372;2023-06-24T01:22:28;15.50;99.90
36374;DHT22;22399;51.346;12.372;2023-06-24T01:25:12;15.50;99.90
36374;DHT22;22399;51.346;12.372;2023-06-24T01:27:57;15.50;99.90
36374;DHT22;22399;51.346;12.372;2023-06-24T01:33:34;15.40;99.90
36374;DHT22;22399;51.346;12.372;2023-06-24T01:36:07;15.30;99.90
36374;DHT22;22399;51.346;12.372;2023-06-24T01:38:43;15.30;99.90
36374;DHT22;22399;51.346;12.372;2023-06-24T01:41:14;15.30;99.90
36374;DHT22;22399;51.346;12.372;2023-06-24T01:43:45;15.30;99.90
36374;DHT22;22399;51.346;12.372;2023-06-24T01:46:14;15.30;99.90
36374;DHT22;22399;51.346;12.372;2023-06-24T01:48:46;15.30;99.90
36374;DHT22;22399;51.346;12.372;2023-06-24T01:51:17;15.30;99.90
36374;DHT22;22399;51.346;12.372;2023-06-24T01:53:49;15.20;99.90
36374;DHT22;22399;51.346;12.372;2023-06-24T01:56:21;15.20;99.90
36374;DHT22;22399;51.346;12.372;2023-06-24T01:58:54;15.20;99.90
36374;DHT22;22399;51.346;12.372;2023-06-24T02:01:25;15.20;99.90
36374;DHT22;22399;51.346;12.372;2023-06-24T02:03:56;15.20;99.90
36374;DHT22;22399;51.346;12.372;2023-06-24T02:06:27;15.20;99.90
36374;DHT22;22399;51.346;12.372;2023-06-24T02:08:58;15.10;99.90
36374;DHT22;22399;51.346;12.372;2023-06-24T02:11:30;15.10;99.90
36374;DHT22;22399;51.346;12.372;2023-06-24T02:14:03;15.10;99.90
36374;DHT22;22399;51.346;12.372;2023-06-24T02:16:33;15.10;99.90
36374;DHT22;22399;51.346;12.372;2023-06-24T02:21:39;15.00;99.90
36374;DHT22;22399;51.346;12.372;2023-06-24T02:24:09;15.00;99.90
36374;DHT22;22399;51.346;12.372;2023-06-24T02:26:39;15.00;99.90
36374;DHT22;22399;51.346;12.372;2023-06-24T02:29:09;15.00;99.90
36374;DHT22;22399;51.346;12.372;2023-06-24T02:31:39;14.90;99.90
36374;DHT22;22399;51.346;12.372;2023-06-24T02:34:08;14.90;99.90
36374;DHT22;22399;51.346;12.372;2023-06-24T02:36:38;14.90;99.90
36374;DHT22;22399;51.346;12.372;2023-06-24T02:39:06;14.80;99.90
36374;DHT22;22399;51.346;12.372;2023-06-24T02:41:35;14.90;99.90
36374;DHT22;22399;51.346;12.372;2023-06-24T02:44:04;14.80;99.90
36374;DHT22;22399;51.346;12.372;2023-06-24T02:46:35;14.80;99.90
36374;DHT22;22399;51.346;12.372;2023-06-24T02:49:04;14.80;99.90
36374;DHT22;22399;51.346;12.372;2023-06-24T02:51:34;14.80;99.90
36374;DHT22;22399;51.346;12.372;2023-06-24T02:54:05;14.80;99.90
36374;DHT22;22399;51.346;12.372;2023-06-24T02:57:00;14.70;99.90
36374;DHT22;22399;51.346;12.372;2023-06-24T02:59:47;14.70;99.90
36374;DHT22;22399;51.346;12.372;2023-06-24T03:02:17;14.70;99.90
36374;DHT22;22399;51.346;12.372;2023-06-24T03:04:46;14.70;99.90
36374;DHT22;22399;51.346;12.372;2023-06-24T03:07:16;14.70;99.90
36374;DHT22;22399;51.346;12.372;2023-06-24T03:09:50;14.60;99.90
36374;DHT22;22399;51.346;12.372;2023-06-24T03:12:19;14.70;99.90
36374;DHT22;22399;51.346;12.372;2023-06-24T03:14:48;14.60;99.90
36374;DHT22;22399;51.346;12.372;2023-06-24T03:17:16;14.70;99.90
36374;DHT22;22399;51.346;12.372;2023-06-24T03:19:45;14.60;99.90
36374;DHT22;22399;51.346;12.372;2023-06-24T03:22:13;14.60;99.90
36374;DHT22;22399;51.346;12.372;2023-06-24T03:24:46;14.60;99.90
36374;DHT22;22399;51.346;12.372;2023-06-24T03:27:17;14.60;99.90
36374;DHT22;22399;51.346;12.372;2023-06-24T03:29:46;14.60;99.90
36374;DHT22;22399;51.346;12.372;2023-06-24T03:32:14;14.60;99.90
36374;DHT22;22399;51.346;12.372;2023-06-24T03:34:43;14.60;99.90
36374;DHT22;22399;51.346;12.372;2023-06-24T03:37:12;14.60;99.90
36374;DHT22;22399;51.346;12.372;2023-06-24T03:39:41;14.60;99.90
36374;DHT22;22399;51.346;12.372;2023-06-24T03:42:10;14.60;99.90
36374;DHT22;22399;51.346;12.372;2023-06-24T03:44:40;14.60;99.90
36374;DHT22;22399;51.346;12.372;2023-06-24T03:47:09;14.60;99.90
36374;DHT22;22399;51.346;12.372;2023-06-24T03:49:37;14.60;99.90
36374;DHT22;22399;51.346;12.372;2023-06-24T03:52:06;14.60;99.90
36374;DHT22;22399;51.346;12.372;2023-06-24T03:54:37;14.60;99.90
36374;DHT22;22399;51.346;12.372;2023-06-24T03:57:06;14.60;99.90
36374;DHT22;22399;51.346;12.372;2023-06-24T03:59:36;14.60;99.90
36374;DHT22;22399;51.346;12.372;2023-06-24T04:02:06;14.60;99.90
36374;DHT22;22399;51.346;12.372;2023-06-24T04:04:36;14.60;99.90
36374;DHT22;22399;51.346;12.372;2023-06-24T04:07:04;14.60;99.90
36374;DHT22;22399;51.346;12.372;2023-06-24T04:09:34;14.60;99.90
36374;DHT22;22399;51.346;12.372;2023-06-24T04:12:03;14.60;99.90
36374;DHT22;22399;51.346;12.372;2023-06-24T04:14:34;14.70;99.90
36374;DHT22;22399;51.346;12.372;2023-06-24T04:17:04;14.70;99.90
36374;DHT22;22399;51.346;12.372;2023-06-24T04:19:33;14.70;99.90
36374;DHT22;22399;51.346;12.372;2023-06-24T04:22:02;14.70;99.90
36374;DHT22;22399;51.346;12.372;2023-06-24T04:24:31;14.80;99.90
36374;DHT22;22399;51.346;12.372;2023-06-24T04:27:00;14.80;99.90
36374;DHT22;22399;51.346;12.372;2023-06-24T04:29:28;14.80;99.90
36374;DHT22;22399;51.346;12.372;2023-06-24T04:31:57;14.90;99.90
36374;DHT22;22399;51.346;12.372;2023-06-24T04:34:26;15.10;99.90
36374;DHT22;22399;51.346;12.372;2023-06-24T04:36:55;15.20;99.90
36374;DHT22;22399;51.346;12.372;2023-06-24T04:39:24;15.50;99.90
36374;DHT22;22399;51.346;12.372;2023-06-24T04:41:53;15.70;99.90
36374;DHT22;22399;51.346;12.372;2023-06-24T04:44:21;15.80;99.90
36374;DHT22;22399;51.346;12.372;2023-06-24T04:46:50;16.00;99.90
36374;DHT22;22399;51.346;12.372;2023-06-24T04:49:19;16.10;99.90
36374;DHT22;22399;51.346;12.372;2023-06-24T04:51:48;16.30;99.90
36374;DHT22;22399;51.346;12.372;2023-06-24T04:54:17;16.40;99.90
36374;DHT22;22399;51.346;12.372;2023-06-24T04:56:46;16.50;99.90
36374;DHT22;22399;51.346;12.372;2023-06-24T04:59:17;16.60;99.90
36374;DHT22;22399;51.346;12.372;2023-06-24T05:01:45;16.60;99.90
36374;DHT22;22399;51.346;12.372;2023-06-24T05:04:13;16.50;99.90
36374;DHT22;22399;51.346;12.372;2023-06-24T05:06:42;16.40;99.90
36374;DHT22;22399;51.346;12.372;2023-06-24T05:09:11;16.20;99.90
36374;DHT22;22399;51.346;12.372;2023-06-24T05:11:42;16.10;99.90
36374;DHT22;22399;51.346;12.372;2023-06-24T05:14:11;15.90;99.90
36374;DHT22;22399;51.346;12.372;2023-06-24T05:16:39;15.90;99.90
36374;DHT22;22399;51.346;12.372;2023-06-24T05:19:07;15.80;99.90
36374;DHT22;22399;51.346;12.372;2023-06-24T05:21:36;15.80;99.90
36374;DHT22;22399;51.346;12.372;2023-06-24T05:24:05;15.80;99.90
36374;DHT22;22399;51.346;12.372;2023-06-24T05:26:34;15.90;99.90
36374;DHT22;22399;51.346;12.372;2023-06-24T05:29:04;15.90;99.90
36374;DHT22;22399;51.346;12.372;2023-06-24T05:31:32;16.00;99.90
36374;DHT22;22399;51.346;12.372;2023-06-24T05:34:01;16.10;99.90
36374;DHT22;22399;51.346;12.372;2023-06-24T05:36:30;16.40;99.90
36374;DHT22;22399;51.346;12.372;2023-06-24T05:38:58;16.70;99.90
36374;DHT22;22399;51.346;12.372;2023-06-24T05:41:27;17.00;99.90
36374;DHT22;22399;51.346;12.372;2023-06-24T05:44:01;17.40;99.90
36374;DHT22;22399;51.346;12.372;2023-06-24T05:46:32;17.50;99.90
36374;DHT22;22399;51.346;12.372;2023-06-24T05:49:00;17.70;99.90
36374;DHT22;22399;51.346;12.372;2023-06-24T05:51:29;18.00;99.90
36374;DHT22;22399;51.346;12.372;2023-06-24T05:53:57;18.20;99.90
36374;DHT22;22399;51.346;12.372;2023-06-24T05:56:26;18.60;99.90
36374;DHT22;22399;51.346;12.372;2023-06-24T05:58:55;18.90;99.90
36374;DHT22;22399;51.346;12.372;2023-06-24T06:01:23;19.10;99.90
36374;DHT22;22399;51.346;12.372;2023-06-24T06:03:53;19.10;99.90
36374;DHT22;22399;51.346;12.372;2023-06-24T06:06:22;18.80;99.90
36374;DHT22;22399;51.346;12.372;2023-06-24T06:08:50;19.00;99.90
36374;DHT22;22399;51.346;12.372;2023-06-24T06:11:18;19.20;99.90
36374;DHT22;22399;51.346;12.372;2023-06-24T06:13:47;20.20;99.90
36374;DHT22;22399;51.346;12.372;2023-06-24T06:16:15;20.20;99.90
36374;DHT22;22399;51.346;12.372;2023-06-24T06:18:43;19.80;99.90
36374;DHT22;22399;51.346;12.372;2023-06-24T06:21:13;20.30;99.90
36374;DHT22;22399;51.346;12.372;2023-06-24T06:23:42;20.70;99.90
36374;DHT22;22399;51.346;12.372;2023-06-24T06:26:10;21.70;99.90
36374;DHT22;22399;51.346;12.372;2023-06-24T06:28:38;21.30;99.90
36374;DHT22;22399;51.346;12.372;2023-06-24T06:31:07;21.20;99.90
36374;DHT22;22399;51.346;12.372;2023-06-24T06:33:36;21.00;99.90
36374;DHT22;22399;51.346;12.372;2023-06-24T06:36:05;21.10;99.90
36374;DHT22;22399;51.346;12.372;2023-06-24T06:38:35;20.90;99.90
36374;DHT22;22399;51.346;12.372;2023-06-24T06:41:03;20.50;99.90
36374;DHT22;22399;51.346;12.372;2023-06-24T06:43:33;20.20;99.90
36374;DHT22;22399;51.346;12.372;2023-06-24T06:46:01;20.00;99.90
36374;DHT22;22399;51.346;12.372;2023-06-24T06:48:30;19.80;99.90
36374;DHT22;22399;51.346;12.372;2023-06-24T06:50:58;20.10;99.90
36374;DHT22;22399;51.346;12.372;2023-06-24T06:53:27;21.10;99.90
36374;DHT22;22399;51.346;12.372;2023-06-24T06:55:57;21.40;99.90
36374;DHT22;22399;51.346;12.372;2023-06-24T06:58:25;21.70;99.90
36374;DHT22;22399;51.346;12.372;2023-06-24T07:00:54;21.80;99.90
36374;DHT22;22399;51.346;12.372;2023-06-24T07:03:22;21.70;99.90
36374;DHT22;22399;51.346;12.372;2023-06-24T07:05:51;21.40;99.90
36374;DHT22;22399;51.346;12.372;2023-06-24T07:08:20;21.20;99.90
36374;DHT22;22399;51.346;12.372;2023-06-24T07:10:48;21.20;99.90
36374;DHT22;22399;51.346;12.372;2023-06-24T07:13:18;21.20;99.90
36374;DHT22;22399;51.346;12.372;2023-06-24T07:15:46;21.30;99.90
36374;DHT22;22399;51.346;12.372;2023-06-24T07:18:14;21.90;99.90
36374;DHT22;22399;51.346;12.372;2023-06-24T07:20:43;22.30;99.90
36374;DHT22;22399;51.346;12.372;2023-06-24T07:23:12;22.50;99.90
36374;DHT22;22399;51.346;12.372;2023-06-24T07:25:40;23.00;99.90
36374;DHT22;22399;51.346;12.372;2023-06-24T07:28:08;23.30;99.90
36374;DHT22;22399;51.346;12.372;2023-06-24T07:30:40;22.90;99.90
36374;DHT22;22399;51.346;12.372;2023-06-24T07:33:09;22.50;99.90
36374;DHT22;22399;51.346;12.372;2023-06-24T07:35:37;22.40;99.90
36374;DHT22;22399;51.346;12.372;2023-06-24T07:38:06;22.70;99.90
36374;DHT22;22399;51.346;12.372;2023-06-24T07:40:34;22.50;99.90
36374;DHT22;22399;51.346;12.372;2023-06-24T07:43:03;22.10;99.90
36374;DHT22;22399;51.346;12.372;2023-06-24T07:45:31;22.20;99.90
36374;DHT22;22399;51.346;12.372;2023-06-24T07:48:01;22.90;99.90
36374;DHT22;22399;51.346;12.372;2023-06-24T07:50:32;23.70;99.90
36374;DHT22;22399;51.346;12.372;2023-06-24T07:53:00;24.10;99.90
36374;DHT22;22399;51.346;12.372;2023-06-24T07:55:29;23.60;99.90
36374;DHT22;22399;51.346;12.372;2023-06-24T07:57:58;23.10;99.90
36374;DHT22;22399;51.346;12.372;2023-06-24T08:00:26;23.80;99.90
36374;DHT22;22399;51.346;12.372;2023-06-24T08:02:55;24.90;99.90
36374;DHT22;22399;51.346;12.372;2023-06-24T08:05:25;24.80;99.90
36374;DHT22;22399;51.346;12.372;2023-06-24T08:07:53;24.00;99.90
36374;DHT22;22399;51.346;12.372;2023-06-24T08:10:21;23.40;99.90
36374;DHT22;22399;51.346;12.372;2023-06-24T08:12:50;22.80;99.90
36374;DHT22;22399;51.346;12.372;2023-06-24T08:15:18;22.80;99.90
36374;DHT22;22399;51.346;12.372;2023-06-24T08:17:51;24.10;99.90
36374;DHT22;22399;51.346;12.372;2023-06-24T08:20:20;25.40;99.90
36374;DHT22;22399;51.346;12.372;2023-06-24T08:22:50;26.40;99.90
36374;DHT22;22399;51.346;12.372;2023-06-24T08:25:19;27.40;99.90
36374;DHT22;22399;51.346;12.372;2023-06-24T08:27:48;27.50;99.90
36374;DHT22;22399;51.346;12.372;2023-06-24T08:30:16;27.00;99.90
36374;DHT22;22399;51.346;12.372;2023-06-24T08:32:45;27.50;99.90
36374;DHT22;22399;51.346;12.372;2023-06-24T08:35:13;28.10;99.90
36374;DHT22;22399;51.346;12.372;2023-06-24T08:37:42;28.60;99.90
36374;DHT22;22399;51.346;12.372;2023-06-24T08:40:12;29.20;99.90
36374;DHT22;22399;51.346;12.372;2023-06-24T08:42:42;28.60;99.90
36374;DHT22;22399;51.346;12.372;2023-06-24T08:45:11;28.10;99.90
36374;DHT22;22399;51.346;12.372;2023-06-24T08:47:40;27.00;99.90
36374;DHT22;22399;51.346;12.372;2023-06-24T08:50:12;27.20;99.90
36374;DHT22;22399;51.346;12.372;2023-06-24T08:52:43;27.70;99.90
36374;DHT22;22399;51.346;12.372;2023-06-24T08:55:16;28.40;99.90
36374;DHT22;22399;51.346;12.372;2023-06-24T08:57:47;29.10;99.90
36374;DHT22;22399;51.346;12.372;2023-06-24T09:00:16;29.00;99.90
36374;DHT22;22399;51.346;12.372;2023-06-24T09:02:44;28.60;99.90
36374;DHT22;22399;51.346;12.372;2023-06-24T09:05:13;28.70;99.90
36374;DHT22;22399;51.346;12.372;2023-06-24T09:07:42;29.00;99.90
36374;DHT22;22399;51.346;12.372;2023-06-24T09:10:10;29.50;99.90
36374;DHT22;22399;51.346;12.372;2023-06-24T09:12:57;29.60;99.90
36374;DHT22;22399;51.346;12.372;2023-06-24T09:15:29;29.20;99.90
36374;DHT22;22399;51.346;12.372;2023-06-24T09:17:59;29.20;99.90
36374;DHT22;22399;51.346;12.372;2023-06-24T09:20:31;29.20;99.90
36374;DHT22;22399;51.346;12.372;2023-06-24T09:23:00;28.90;99.90
36374;DHT22;22399;51.346;12.372;2023-06-24T09:25:29;29.00;99.90
36374;DHT22;22399;51.346;12.372;2023-06-24T09:28:00;29.30;99.90
36374;DHT22;22399;51.346;12.372;2023-06-24T09:30:29;29.10;99.90
36374;DHT22;22399;51.346;12.372;2023-06-24T09:32:57;28.90;99.90
36374;DHT22;22399;51.346;12.372;2023-06-24T09:35:26;28.80;99.90
36374;DHT22;22399;51.346;12.372;2023-06-24T09:37:56;29.00;99.90
36374;DHT22;22399;51.346;12.372;2023-06-24T09:40:26;29.70;99.90
36374;DHT22;22399;51.346;12.372;2023-06-24T09:42:56;30.00;99.90
36374;DHT22;22399;51.346;12.372;2023-06-24T09:45:28;29.20;99.90
36374;DHT22;22399;51.346;12.372;2023-06-24T09:47:57;28.80;99.90
36374;DHT22;22399;51.346;12.372;2023-06-24T09:50:26;28.80;99.90
36374;DHT22;22399;51.346;12.372;2023-06-24T09:52:56;28.70;99.90
36374;DHT22;22399;51.346;12.372;2023-06-24T09:55:25;28.80;99.90
36374;DHT22;22399;51.346;12.372;2023-06-24T09:57:54;28.70;99.90
36374;DHT22;22399;51.346;12.372;2023-06-24T10:00:24;29.00;99.90
36374;DHT22;22399;51.346;12.372;2023-06-24T10:02:55;29.40;99.90
36374;DHT22;22399;51.346;12.372;2023-06-24T10:05:27;29.60;99.90
36374;DHT22;22399;51.346;12.372;2023-06-24T10:08:02;30.10;99.90
36374;DHT22;22399;51.346;12.372;2023-06-24T10:10:33;30.20;93.10
36374;DHT22;22399;51.346;12.372;2023-06-24T10:13:02;30.40;98.80
36374;DHT22;22399;51.346;12.372;2023-06-24T10:15:30;30.10;99.90
36374;DHT22;22399;51.346;12.372;2023-06-24T10:18:03;30.00;99.90
36374;DHT22;22399;51.346;12.372;2023-06-24T10:20:42;29.80;99.90
36374;DHT22;22399;51.346;12.372;2023-06-24T10:23:15;29.70;99.90
36374;DHT22;22399;51.346;12.372;2023-06-24T10:25:47;29.80;99.90
36374;DHT22;22399;51.346;12.372;2023-06-24T10:28:16;30.00;99.90
36374;DHT22;22399;51.346;12.372;2023-06-24T10:30:54;30.30;99.90
36374;DHT22;22399;51.346;12.372;2023-06-24T10:33:25;30.40;99.90
36374;DHT22;22399;51.346;12.372;2023-06-24T10:35:53;30.40;99.40
36374;DHT22;22399;51.346;12.372;2023-06-24T10:38:22;30.20;98.00
36374;DHT22;22399;51.346;12.372;2023-06-24T10:40:50;29.90;96.80
36374;DHT22;22399;51.346;12.372;2023-06-24T10:43:29;29.70;97.10
36374;DHT22;22399;51.346;12.372;2023-06-24T10:45:58;29.50;97.50
36374;DHT22;22399;51.346;12.372;2023-06-24T10:48:28;29.90;98.20
36374;DHT22;22399;51.346;12.372;2023-06-24T10:50:57;30.00;96.80
36374;DHT22;22399;51.346;12.372;2023-06-24T10:53:26;30.10;96.10
36374;DHT22;22399;51.346;12.372;2023-06-24T10:55:57;30.00;95.80
36374;DHT22;22399;51.346;12.372;2023-06-24T10:58:26;29.90;95.50
36374;DHT22;22399;51.346;12.372;2023-06-24T11:01:06;30.20;95.80
36374;DHT22;22399;51.346;12.372;2023-06-24T11:03:40;30.70;94.90
36374;DHT22;22399;51.346;12.372;2023-06-24T11:06:10;30.70;94.60
36374;DHT22;22399;51.346;12.372;2023-06-24T11:08:44;30.70;94.00
36374;DHT22;22399;51.346;12.372;2023-06-24T11:11:19;30.60;93.50
36374;DHT22;22399;51.346;12.372;2023-06-24T11:13:48;30.20;93.80
36374;DHT22;22399;51.346;12.372;2023-06-24T11:16:21;30.30;93.70
36374;DHT22;22399;51.346;12.372;2023-06-24T11:18:51;30.40;92.80
36374;DHT22;22399;51.346;12.372;2023-06-24T11:21:20;30.50;92.00
36374;DHT22;22399;51.346;12.372;2023-06-24T11:24:00;30.70;91.20
36374;DHT22;22399;51.346;12.372;2023-06-24T11:26:29;31.00;90.80
36374;DHT22;22399;51.346;12.372;2023-06-24T11:28:58;31.10;89.80
36374;DHT22;22399;51.346;12.372;2023-06-24T11:31:26;31.20;90.00
36374;DHT22;22399;51.346;12.372;2023-06-24T11:33:56;31.20;88.80
36374;DHT22;22399;51.346;12.372;2023-06-24T11:36:25;31.00;85.90
36374;DHT22;22399;51.346;12.372;2023-06-24T11:38:54;30.60;86.10
36374;DHT22;22399;51.346;12.372;2023-06-24T11:41:22;30.60;86.50
36374;DHT22;22399;51.346;12.372;2023-06-24T11:43:53;30.50;86.70
36374;DHT22;22399;51.346;12.372;2023-06-24T11:46:23;30.40;86.40
36374;DHT22;22399;51.346;12.372;2023-06-24T11:48:52;30.60;86.80
36374;DHT22;22399;51.346;12.372;2023-06-24T11:51:23;30.80;86.10
36374;DHT22;22399;51.346;12.372;2023-06-24T11:53:52;30.50;83.90
36374;DHT22;22399;51.346;12.372;2023-06-24T11:56:34;30.30;84.30
36374;DHT22;22399;51.346;12.372;2023-06-24T11:59:04;30.70;84.30
36374;DHT22;22399;51.346;12.372;2023-06-24T12:01:34;31.20;83.00
36374;DHT22;22399;51.346;12.372;2023-06-24T12:04:09;31.10;82.40
36374;DHT22;22399;51.346;12.372;2023-06-24T12:06:40;31.30;82.90
36374;DHT22;22399;51.346;12.372;2023-06-24T12:09:09;31.30;82.00
36374;DHT22;22399;51.346;12.372;2023-06-24T12:11:37;31.10;82.20
36374;DHT22;22399;51.346;12.372;2023-06-24T12:14:06;31.00;82.20
36374;DHT22;22399;51.346;12.372;2023-06-24T12:16:34;31.10;81.90
36374;DHT22;22399;51.346;12.372;2023-06-24T12:19:03;31.30;81.30
36374;DHT22;22399;51.346;12.372;2023-06-24T12:21:31;31.50;81.00
36374;DHT22;22399;51.346;12.372;2023-06-24T12:24:01;31.70;81.40
36374;DHT22;22399;51.346;12.372;2023-06-24T12:26:30;31.90;80.50
36374;DHT22;22399;51.346;12.372;2023-06-24T12:28:58;31.70;79.60
36374;DHT22;22399;51.346;12.372;2023-06-24T12:31:27;31.60;79.70
36374;DHT22;22399;51.346;12.372;2023-06-24T12:33:56;31.80;80.10
36374;DHT22;22399;51.346;12.372;2023-06-24T12:36:24;31.90;79.40
36374;DHT22;22399;51.346;12.372;2023-06-24T12:38:53;32.10;78.40
36374;DHT22;22399;51.346;12.372;2023-06-24T12:41:22;31.80;76.70
36374;DHT22;22399;51.346;12.372;2023-06-24T12:43:51;31.60;76.90
36374;DHT22;22399;51.346;12.372;2023-06-24T12:46:19;31.70;76.30
36374;DHT22;22399;51.346;12.372;2023-06-24T12:48:48;31.90;75.90
36374;DHT22;22399;51.346;12.372;2023-06-24T12:51:16;32.20;75.50
36374;DHT22;22399;51.346;12.372;2023-06-24T12:53:45;32.40;74.50
36374;DHT22;22399;51.346;12.372;2023-06-24T12:56:13;32.70;73.90
36374;DHT22;22399;51.346;12.372;2023-06-24T12:58:43;32.90;72.70
36374;DHT22;22399;51.346;12.372;2023-06-24T13:01:12;32.90;72.50
36374;DHT22;22399;51.346;12.372;2023-06-24T13:03:42;33.00;72.10
36374;DHT22;22399;51.346;12.372;2023-06-24T13:06:11;33.10;71.60
36374;DHT22;22399;51.346;12.372;2023-06-24T13:08:41;33.30;70.80
36374;DHT22;22399;51.346;12.372;2023-06-24T13:11:10;33.50;70.30
36374;DHT22;22399;51.346;12.372;2023-06-24T13:13:39;33.50;70.10
36374;DHT22;22399;51.346;12.372;2023-06-24T13:16:10;33.30;69.60
36374;DHT22;22399;51.346;12.372;2023-06-24T13:18:38;33.50;69.10
36374;DHT22;22399;51.346;12.372;2023-06-24T13:21:07;33.70;68.40
36374;DHT22;22399;51.346;12.372;2023-06-24T13:23:42;33.70;68.20
36374;DHT22;22399;51.346;12.372;2023-06-24T13:26:11;33.80;68.10
36374;DHT22;22399;51.346;12.372;2023-06-24T13:28:39;33.70;67.40
36374;DHT22;22399;51.346;12.372;2023-06-24T13:31:09;33.70;66.70
36374;DHT22;22399;51.346;12.372;2023-06-24T13:33:40;33.80;66.90
36374;DHT22;22399;51.346;12.372;2023-06-24T13:36:25;33.60;67.00
36374;DHT22;22399;51.346;12.372;2023-06-24T13:38:55;33.40;66.90
36374;DHT22;22399;51.346;12.372;2023-06-24T13:41:24;32.70;66.40
36374;DHT22;22399;51.346;12.372;2023-06-24T13:43:53;32.20;68.00
36374;DHT22;22399;51.346;12.372;2023-06-24T13:46:23;32.30;67.90
36374;DHT22;22399;51.346;12.372;2023-06-24T13:48:52;32.80;67.20
36374;DHT22;22399;51.346;12.372;2023-06-24T13:51:21;32.60;65.40
36374;DHT22;22399;51.346;12.372;2023-06-24T13:53:50;32.60;65.80
36374;DHT22;22399;51.346;12.372;2023-06-24T13:56:20;32.00;65.00
36374;DHT22;22399;51.346;12.372;2023-06-24T13:58:50;32.00;65.60
36374;DHT22;22399;51.346;12.372;2023-06-24T14:01:18;31.90;65.70
36374;DHT22;22399;51.346;12.372;2023-06-24T14:03:49;31.70;65.80
36374;DHT22;22399;51.346;12.372;2023-06-24T14:06:21;32.10;65.50
36374;DHT22;22399;51.346;12.372;2023-06-24T14:08:51;32.20;65.20
36374;DHT22;22399;51.346;12.372;2023-06-24T14:11:20;31.10;67.60
36374;DHT22;22399;51.346;12.372;2023-06-24T14:13:49;30.30;70.40
36374;DHT22;22399;51.346;12.372;2023-06-24T14:16:17;29.70;71.80
36374;DHT22;22399;51.346;12.372;2023-06-24T14:18:46;29.10;72.40
36374;DHT22;22399;51.346;12.372;2023-06-24T14:21:16;28.80;73.10
36374;DHT22;22399;51.346;12.372;2023-06-24T14:23:45;28.70;73.40
36374;DHT22;22399;51.346;12.372;2023-06-24T14:26:14;28.60;73.20
36374;DHT22;22399;51.346;12.372;2023-06-24T14:28:44;28.50;73.00
36374;DHT22;22399;51.346;12.372;2023-06-24T14:31:13;28.30;72.40
36374;DHT22;22399;51.346;12.372;2023-06-24T14:33:41;28.10;72.70
36374;DHT22;22399;51.346;12.372;2023-06-24T14:36:10;28.00;72.90
36374;DHT22;22399;51.346;12.372;2023-06-24T14:38:40;28.00;73.10
36374;DHT22;22399;51.346;12.372;2023-06-24T14:41:10;27.90;73.20
36374;DHT22;22399;51.346;12.372;2023-06-24T14:43:39;27.80;72.80
36374;DHT22;22399;51.346;12.372;2023-06-24T14:46:07;27.70;73.40
36374;DHT22;22399;51.346;12.372;2023-06-24T14:48:36;27.70;73.20
36374;DHT22;22399;51.346;12.372;2023-06-24T14:51:05;27.70;73.10
36374;DHT22;22399;51.346;12.372;2023-06-24T14:53:34;27.60;73.10
36374;DHT22;22399;51.346;12.372;2023-06-24T14:56:04;27.60;72.90
36374;DHT22;22399;51.346;12.372;2023-06-24T14:58:33;27.50;72.90
36374;DHT22;22399;51.346;12.372;2023-06-24T15:01:02;27.40;72.50
36374;DHT22;22399;51.346;12.372;2023-06-24T15:03:30;27.20;72.50
36374;DHT22;22399;51.346;12.372;2023-06-24T15:05:59;27.20;73.10
36374;DHT22;22399;51.346;12.372;2023-06-24T15:08:28;27.20;73.50
36374;DHT22;22399;51.346;12.372;2023-06-24T15:10:56;27.20;74.40
36374;DHT22;22399;51.346;12.372;2023-06-24T15:13:25;27.30;73.60
36374;DHT22;22399;51.346;12.372;2023-06-24T15:15:54;27.30;73.60
36374;DHT22;22399;51.346;12.372;2023-06-24T15:18:25;27.20;73.40
36374;DHT22;22399;51.346;12.372;2023-06-24T15:20:54;27.20;73.70
36374;DHT22;22399;51.346;12.372;2023-06-24T15:23:23;27.10;73.80
36374;DHT22;22399;51.346;12.372;2023-06-24T15:25:52;26.90;73.50
36374;DHT22;22399;51.346;12.372;2023-06-24T15:28:21;26.80;74.10
36374;DHT22;22399;51.346;12.372;2023-06-24T15:30:51;26.80;74.10
36374;DHT22;22399;51.346;12.372;2023-06-24T15:33:19;26.70;74.50
36374;DHT22;22399;51.346;12.372;2023-06-24T15:35:48;26.60;74.20
36374;DHT22;22399;51.346;12.372;2023-06-24T15:38:16;26.50;74.50